首页
METAR-TAF:

METAR-TAF

机场 :

占賈國際機場

占贾, 阿塞拜疆

纬度: 40-44N, 经度: 046-24E, 海拔: 330米

当前天气观测

该预报发布于41分钟前的09:30 UTC
风速8节,风向东转东北,在之间变化
温度 27°C
湿度 39%
气压 1011 hPa
能见度10公里或以上
少量云层高于10000英尺

METAR: UBBG 010930Z 06008KT 010V100 9999 FEW100 27/12 Q1011 R12/CLRD// NOSIG

时间: 14:11 (10:11 UTC)

预报

该预报发布于5小时和11分钟前的05:00 UTC
预报有效从01日的 06点(UTC)到 02日的 06点(UTC)
风速4节,风向多变
能见度10公里或以上
少量云层高于5000英尺
散云层高于10000英尺
成为
从 01日的 08点(UTC)到 01日的 10点(UTC)
风速10节,风向
几率 40% :
短暂存在
从 01日的 12点(UTC)到 01日的 18点(UTC)
少量云层高于4000英尺, 积雨云.
多云层高于8000英尺
雷暴, 小雨
成为
从 01日的 18点(UTC)到 01日的 20点(UTC)
风速8节,风向西南

TAF: UBBG 010500Z 0106/0206 VRB04KT 9999 FEW050 SCT100 TX31/0113Z TN18/0202Z BECMG 0108/0110 08010KT PROB40 TEMPO 0112/0118 -TSRA FEW040CB BKN080 BECMG 0118/0120 22008KT

超过4000个机场的气象观测和天气预报(METAR&TAF报告)。

可查询的气象台以黄色和红色小点在地图上表示。

将鼠标移到小点上方,可查看气象台名称。

然后点击查看天气观测和预报。

如需切换地图:点击带黑十字的绿色按钮放大地图;点击带横线的绿色按钮缩小地图;或者点击绿色箭头查看邻近地区的地图。


METAR-TAF: